Time;durP1;ratioP1;P1;durP2;ratioP2;P2;SDS_P1;SDS_P2;PMS_P1;PMS_P2;Temp;Humidity;BMP_temperature;BMP_pressure;BME280_temperature;BME280_humidity;BME280_pressure;Samples;Min_cycle;Max_cycle;Signal;HPM_P1;HPM_P2
2020/12/09 05:20:06;;;;;;;1999.90;999.90;;;1.60;99.90;;;;;;5113848;27;20657;-49
2020/12/09 05:22:37;;;;;;;1999.90;999.90;;;1.50;99.90;;;;;;5087284;28;20911;-49
2020/12/09 05:25:02;;;;;;;1999.90;999.90;;;1.60;99.90;;;;;;5085290;28;20182;-49
2020/12/09 05:27:28;;;;;;;1999.90;999.90;;;1.70;99.90;;;;;;5086835;28;21000;-49
2020/12/09 05:29:53;;;;;;;1999.90;999.90;;;1.80;99.90;;;;;;5084620;28;20213;-50
2020/12/09 05:32:19;;;;;;;1999.90;999.90;;;1.80;99.90;;;;;;5085023;28;20185;-49
2020/12/09 05:34:45;;;;;;;1999.90;999.90;;;1.90;99.90;;;;;;5078718;28;20190;-49
2020/12/09 05:37:12;;;;;;;1999.90;999.90;;;1.90;99.90;;;;;;5081880;28;20593;-48
2020/12/09 05:39:55;;;;;;;1999.90;999.90;;;1.90;99.90;;;;;;5078610;28;20218;-48
2020/12/09 05:42:22;;;;;;;1999.90;999.90;;;2.00;99.90;;;;;;5086316;28;20420;-49
2020/12/09 05:44:49;;;;;;;1999.90;999.90;;;2.00;99.90;;;;;;5079444;28;20452;-49
2020/12/09 05:47:16;;;;;;;1999.90;999.90;;;2.10;99.90;;;;;;5088872;28;20804;-49
2020/12/09 05:49:42;;;;;;;1999.90;999.90;;;2.00;99.90;;;;;;5082769;28;20536;-49
2020/12/09 05:52:13;;;;;;;1999.90;999.90;;;2.10;99.90;;;;;;5088453;28;20891;-49
2020/12/09 05:54:52;;;;;;;1999.90;999.90;;;2.20;99.90;;;;;;5086024;28;20788;-50
2020/12/09 05:57:25;;;;;;;1999.90;999.90;;;2.10;99.90;;;;;;5086409;28;20456;-49
2020/12/09 05:59:51;;;;;;;1999.90;999.90;;;2.10;99.90;;;;;;5081526;28;20480;-48
2020/12/09 06:02:27;;;;;;;1999.90;999.90;;;2.20;99.90;;;;;;5079278;28;20545;-49
2020/12/09 06:04:56;;;;;;;1999.90;999.90;;;2.20;99.90;;;;;;5081819;28;20514;-49
2020/12/09 06:07:27;;;;;;;1999.90;999.90;;;2.10;99.90;;;;;;5075582;28;20431;-49
2020/12/09 06:10:13;;;;;;;1999.90;999.90;;;2.20;99.90;;;;;;5074404;28;20461;-49
2020/12/09 06:12:55;;;;;;;1999.90;999.90;;;2.20;99.90;;;;;;5079219;28;20449;-48
2020/12/09 06:15:22;;;;;;;1999.90;999.90;;;2.20;99.90;;;;;;5088857;28;20415;-48
2020/12/09 06:18:04;;;;;;;1999.90;999.90;;;2.20;99.90;;;;;;5087622;28;20441;-49
2020/12/09 06:20:30;;;;;;;1999.90;999.90;;;2.20;99.90;;;;;;5086494;28;20543;-49
2020/12/09 06:22:57;;;;;;;1999.90;999.90;;;2.20;99.90;;;;;;5085632;28;20501;-49
2020/12/09 06:25:23;;;;;;;1999.90;999.90;;;2.10;99.90;;;;;;5073454;28;20434;-48
2020/12/09 06:27:50;;;;;;;1999.90;999.90;;;2.10;99.90;;;;;;5080798;28;20439;-49
2020/12/09 06:30:31;;;;;;;1999.90;999.90;;;2.10;99.90;;;;;;5074856;28;20478;-48
2020/12/09 06:32:57;;;;;;;1999.90;999.90;;;2.10;99.90;;;;;;5064734;28;20438;-48
2020/12/09 06:35:23;;;;;;;1999.90;999.90;;;2.10;99.90;;;;;;5074938;28;20412;-48
2020/12/09 06:38:12;;;;;;;1999.90;999.90;;;2.10;99.90;;;;;;5069685;28;20451;-49
2020/12/09 06:40:57;;;;;;;1999.90;999.90;;;2.20;99.90;;;;;;5063846;28;20226;-49
2020/12/09 06:43:23;;;;;;;1999.90;999.90;;;2.20;99.90;;;;;;5063219;28;20515;-49
2020/12/09 06:45:49;;;;;;;1999.90;999.90;;;2.20;99.90;;;;;;5074791;28;20949;-48
2020/12/09 06:48:16;;;;;;;1999.90;999.90;;;2.20;99.90;;;;;;5068271;28;20451;-48
2020/12/09 06:50:43;;;;;;;1999.90;999.90;;;2.30;99.90;;;;;;5072171;28;20482;-49
2020/12/09 06:53:14;;;;;;;1999.90;999.90;;;2.20;99.90;;;;;;5064417;28;20444;-48
2020/12/09 06:55:40;;;;;;;1999.90;999.90;;;2.20;99.90;;;;;;5064309;28;20443;-49
2020/12/09 06:58:28;;;;;;;1999.90;999.90;;;2.20;99.90;;;;;;5068958;28;20527;-48
2020/12/09 07:01:00;;;;;;;1999.90;999.90;;;2.20;99.90;;;;;;5061089;28;20492;-48
2020/12/09 07:03:28;;;;;;;1999.90;999.90;;;2.20;99.90;;;;;;5052100;28;20417;-49
2020/12/09 07:05:55;;;;;;;1999.90;999.90;;;2.20;99.90;;;;;;5063572;28;20438;-48
2020/12/09 07:08:21;;;;;;;1999.90;999.90;;;2.10;99.90;;;;;;5062054;28;20440;-48
2020/12/09 07:10:46;;;;;;;1999.90;999.90;;;2.20;99.90;;;;;;5059338;28;20477;-48
2020/12/09 07:13:21;;;;;;;1999.90;999.90;;;2.20;99.90;;;;;;5072223;28;20195;-48
2020/12/09 07:15:51;;;;;;;1999.90;999.90;;;2.20;99.90;;;;;;5063895;28;20193;-49
2020/12/09 07:18:16;;;;;;;1999.90;999.90;;;2.20;99.90;;;;;;5063174;28;20481;-49
2020/12/09 07:20:42;;;;;;;1999.90;999.90;;;2.20;99.90;;;;;;5061939;28;20989;-48
2020/12/09 07:23:08;;;;;;;1999.90;999.90;;;2.30;99.90;;;;;;5061486;28;20193;-48
2020/12/09 07:25:35;;;;;;;1999.90;999.90;;;2.30;99.90;;;;;;5060936;28;20898;-48
2020/12/09 07:28:02;;;;;;;1999.90;999.90;;;2.30;99.90;;;;;;5055572;28;20443;-49
2020/12/09 07:30:28;;;;;;;1999.90;999.90;;;2.40;99.90;;;;;;5057572;28;20466;-48
2020/12/09 07:32:55;;;;;;;1999.90;999.90;;;2.40;99.90;;;;;;5067452;28;20443;-48
2020/12/09 07:35:21;;;;;;;1999.90;999.90;;;2.40;99.90;;;;;;5067155;28;20450;-49
2020/12/09 07:37:51;;;;;;;1999.90;999.90;;;2.30;99.90;;;;;;5060437;28;20431;-49
2020/12/09 07:40:28;;;;;;;1999.90;999.90;;;2.40;99.90;;;;;;5058448;28;20447;-49
2020/12/09 07:43:20;;;;;;;1999.90;999.90;;;2.40;99.90;;;;;;5058706;28;20439;-48
2020/12/09 07:45:45;;;;;;;1999.90;999.90;;;2.40;99.90;;;;;;5054600;28;20497;-48
2020/12/09 07:48:16;;;;;;;1999.90;999.90;;;2.40;99.90;;;;;;5061374;28;20443;-49
2020/12/09 07:50:49;;;;;;;1999.90;999.90;;;2.40;99.90;;;;;;5057094;28;20584;-48
2020/12/09 07:53:15;;;;;;;1999.90;999.90;;;2.50;99.90;;;;;;5060460;28;20438;-49
2020/12/09 07:55:41;;;;;;;1999.90;999.90;;;2.60;99.90;;;;;;5058824;28;20836;-48
2020/12/09 07:58:09;;;;;;;1999.90;999.90;;;2.60;99.90;;;;;;5063729;28;20282;-48
2020/12/09 08:00:39;;;;;;;1999.90;999.90;;;2.60;99.90;;;;;;5058021;28;20458;-48
2020/12/09 08:03:06;;;;;;;1999.90;999.90;;;2.60;99.90;;;;;;5055347;28;21022;-48
2020/12/09 08:05:36;;;;;;;1999.90;999.90;;;2.70;99.90;;;;;;5067183;28;20455;-49
2020/12/09 08:08:05;;;;;;;1999.90;999.90;;;2.80;99.90;;;;;;5066163;28;20442;-49
2020/12/09 08:13:06;;;;;;;1999.90;999.90;;;2.80;99.90;;;;;;5305123;22;20885;-49
2020/12/09 08:15:33;;;;;;;1999.90;999.90;;;2.80;99.90;;;;;;5030943;28;20440;-49
2020/12/09 08:17:59;;;;;;;1999.90;999.90;;;2.80;99.90;;;;;;5023618;28;20199;-49
2020/12/09 08:20:25;;;;;;;1999.90;999.90;;;2.80;99.90;;;;;;5021982;28;20437;-49
2020/12/09 08:22:55;;;;;;;1999.90;999.90;;;2.90;99.90;;;;;;5021793;28;20563;-50
2020/12/09 08:25:23;;;;;;;1999.90;999.90;;;3.00;99.90;;;;;;5021887;28;20429;-49
2020/12/09 08:27:49;;;;;;;1999.90;999.90;;;3.00;99.90;;;;;;5021913;28;20445;-49
2020/12/09 08:30:20;;;;;;;1999.90;999.90;;;3.00;99.90;;;;;;5021817;28;20461;-49
2020/12/09 08:33:00;;;;;;;1999.90;999.90;;;3.00;99.90;;;;;;5025528;28;20459;-48
2020/12/09 08:35:27;;;;;;;1999.90;999.90;;;3.10;99.90;;;;;;5028921;28;20441;-47
2020/12/09 08:37:53;;;;;;;1999.90;999.90;;;3.20;99.90;;;;;;5028473;28;20779;-47
2020/12/09 08:40:18;;;;;;;1999.90;999.90;;;3.20;99.90;;;;;;5028299;28;20447;-47
2020/12/09 08:42:52;;;;;;;1999.90;999.90;;;3.20;99.90;;;;;;5025135;28;20210;-49
2020/12/09 08:45:17;;;;;;;1999.90;999.90;;;3.30;99.90;;;;;;5029272;28;20775;-49
2020/12/09 08:47:43;;;;;;;1999.90;999.90;;;3.40;99.90;;;;;;5029618;28;20583;-49
2020/12/09 08:50:09;;;;;;;1999.90;999.90;;;3.40;99.90;;;;;;5028622;28;20193;-49
2020/12/09 08:52:34;;;;;;;1999.90;999.90;;;3.50;99.90;;;;;;5027683;28;20585;-49
2020/12/09 08:55:00;;;;;;;1999.90;999.90;;;3.60;99.90;;;;;;5004984;28;20194;-53
2020/12/09 08:57:25;;;;;;;1999.90;999.90;;;3.60;99.90;;;;;;5024316;28;20187;-49
2020/12/09 08:59:51;;;;;;;1999.90;999.90;;;3.60;99.90;;;;;;5028852;28;20589;-49
2020/12/09 09:02:17;;;;;;;1999.90;999.90;;;3.70;99.90;;;;;;5010440;28;20206;-50
2020/12/09 09:04:42;;;;;;;1999.90;999.90;;;3.80;99.90;;;;;;5024222;28;20182;-49
2020/12/09 09:07:08;;;;;;;1999.90;999.90;;;3.80;99.90;;;;;;5020241;28;20698;-49
2020/12/09 09:09:34;;;;;;;1999.90;999.90;;;4.00;99.90;;;;;;5002813;28;20214;-49
2020/12/09 09:12:00;;;;;;;1999.90;999.90;;;4.00;99.90;;;;;;5025134;28;20221;-48
2020/12/09 14:36:16;;;;;;;1999.90;999.90;;;3.30;99.90;;;;;;5064824;28;20553;-48
2020/12/09 14:38:42;;;;;;;1999.90;999.90;;;3.30;99.90;;;;;;5062475;28;20446;-48
2020/12/09 14:41:09;;;;;;;1999.90;999.90;;;3.40;99.90;;;;;;5068738;28;20199;-49
2020/12/09 14:43:40;;;;;;;1999.90;999.90;;;3.40;99.90;;;;;;5059594;28;20487;-49
2020/12/09 14:46:05;;;;;;;1999.90;999.90;;;3.40;99.90;;;;;;5055614;28;20435;-50
2020/12/09 14:48:31;;;;;;;1999.90;999.90;;;3.40;99.90;;;;;;5057451;28;20427;-50
2020/12/09 14:50:57;;;;;;;1999.90;999.90;;;3.50;99.90;;;;;;5057965;28;20194;-49
2020/12/09 14:53:22;;;;;;;1999.90;999.90;;;3.40;99.90;;;;;;5057089;28;20208;-50
2020/12/09 14:55:48;;;;;;;1999.90;999.90;;;3.50;99.90;;;;;;5054777;28;20211;-50
2020/12/09 14:58:14;;;;;;;1999.90;999.90;;;3.50;99.90;;;;;;5052674;28;20196;-50
2020/12/09 15:00:39;;;;;;;1999.90;999.90;;;3.50;99.90;;;;;;5058301;28;20606;-50
2020/12/09 15:03:05;;;;;;;1999.90;999.90;;;3.50;99.90;;;;;;5056734;28;20864;-50
2020/12/09 15:05:31;;;;;;;1999.90;999.90;;;3.50;99.90;;;;;;5058155;28;20261;-49
2020/12/09 15:07:57;;;;;;;1999.90;999.90;;;3.60;99.90;;;;;;5057473;28;20693;-50
2020/12/09 15:10:23;;;;;;;1999.90;999.90;;;3.60;99.90;;;;;;5055620;28;20422;-50
2020/12/09 15:12:48;;;;;;;1999.90;999.90;;;3.60;99.90;;;;;;5052730;28;20214;-50
2020/12/09 15:15:14;;;;;;;1999.90;999.90;;;3.60;99.90;;;;;;5054066;28;20296;-50
2020/12/09 15:17:40;;;;;;;1999.90;999.90;;;3.50;99.90;;;;;;5054610;28;20637;-50
2020/12/09 15:20:05;;;;;;;1999.90;999.90;;;3.50;99.90;;;;;;5050929;28;20717;-51
2020/12/09 15:22:31;;;;;;;1999.90;999.90;;;3.60;99.90;;;;;;5048691;28;20198;-50
2020/12/09 15:24:57;;;;;;;1999.90;999.90;;;3.60;99.90;;;;;;5050966;28;20189;-49
2020/12/09 15:27:22;;;;;;;1999.90;999.90;;;3.60;99.90;;;;;;5056502;28;20544;-50
2020/12/09 15:29:48;;;;;;;1999.90;999.90;;;3.50;99.90;;;;;;5052668;28;20193;-50
2020/12/09 15:32:13;;;;;;;1999.90;999.90;;;3.50;99.90;;;;;;5053177;28;20227;-47
2020/12/09 15:34:39;;;;;;;1999.90;999.90;;;3.60;99.90;;;;;;5051616;28;20248;-48
2020/12/09 15:37:05;;;;;;;1999.90;999.90;;;3.60;99.90;;;;;;5056621;28;20733;-48
2020/12/09 15:39:31;;;;;;;1999.90;999.90;;;3.50;99.90;;;;;;5054358;28;20181;-48
2020/12/09 15:41:58;;;;;;;1999.90;999.90;;;3.50;99.90;;;;;;5053199;28;20231;-49
2020/12/09 15:44:23;;;;;;;1999.90;999.90;;;3.50;99.90;;;;;;5055319;28;20461;-49
2020/12/09 15:46:49;;;;;;;1999.90;999.90;;;3.50;99.90;;;;;;5044861;28;20997;-48
2020/12/09 15:49:15;;;;;;;1999.90;999.90;;;3.50;99.90;;;;;;5041201;28;20980;-49
2020/12/09 15:51:40;;;;;;;1999.90;999.90;;;3.50;99.90;;;;;;5041062;28;20213;-49
2020/12/09 15:54:07;;;;;;;1999.90;999.90;;;3.50;99.90;;;;;;5036226;28;20216;-49
2020/12/09 15:56:32;;;;;;;1999.90;999.90;;;3.60;99.90;;;;;;5041860;28;20232;-49
2020/12/09 15:58:59;;;;;;;1999.90;999.90;;;3.50;99.90;;;;;;5042897;28;20858;-49
2020/12/09 16:01:25;;;;;;;1999.90;999.90;;;3.40;99.90;;;;;;5040901;28;20424;-48
2020/12/09 16:03:51;;;;;;;1999.90;999.90;;;3.40;99.90;;;;;;5038588;28;20436;-48
2020/12/09 16:06:17;;;;;;;1999.90;999.90;;;3.50;99.90;;;;;;5043304;28;20425;-49
2020/12/09 16:08:43;;;;;;;1999.90;999.90;;;3.50;99.90;;;;;;5041652;28;20424;-49
2020/12/09 16:11:09;;;;;;;1999.90;999.90;;;3.50;99.90;;;;;;5040892;28;20191;-48
2020/12/09 16:13:34;;;;;;;1999.90;999.90;;;3.60;99.90;;;;;;5046942;28;20321;-48
2020/12/09 16:16:03;;;;;;;1999.90;999.90;;;3.60;99.90;;;;;;5040155;28;20589;-48
2020/12/09 16:18:29;;;;;;;1999.90;999.90;;;3.50;99.90;;;;;;5038997;28;20192;-48
2020/12/09 16:20:54;;;;;;;1999.90;999.90;;;3.40;99.90;;;;;;5038078;28;20971;-48
2020/12/09 16:23:20;;;;;;;1999.90;999.90;;;3.30;99.90;;;;;;5039372;28;20475;-49
2020/12/09 16:25:46;;;;;;;1999.90;999.90;;;3.40;99.90;;;;;;5039040;28;20185;-49
2020/12/09 16:28:12;;;;;;;1999.90;999.90;;;3.40;99.90;;;;;;5041307;28;20284;-48
2020/12/09 16:30:42;;;;;;;1999.90;999.90;;;3.50;99.90;;;;;;5037850;28;20200;-49
2020/12/09 16:33:07;;;;;;;1999.90;999.90;;;3.50;99.90;;;;;;5037112;28;20498;-48
2020/12/09 16:35:33;;;;;;;1999.90;999.90;;;3.50;99.90;;;;;;5037672;28;21208;-49
2020/12/09 16:37:58;;;;;;;1999.90;999.90;;;3.40;99.90;;;;;;5040508;28;20295;-49
2020/12/09 16:40:25;;;;;;;1999.90;999.90;;;3.30;99.90;;;;;;5043030;28;20175;-49
2020/12/09 16:42:51;;;;;;;1999.90;999.90;;;3.30;99.90;;;;;;5039126;28;20260;-48
2020/12/09 16:45:16;;;;;;;1999.90;999.90;;;3.30;99.90;;;;;;5038226;28;20444;-47
2020/12/09 16:47:42;;;;;;;1999.90;999.90;;;3.30;99.90;;;;;;5034693;28;20197;-48
2020/12/09 16:50:08;;;;;;;1999.90;999.90;;;3.30;99.90;;;;;;5032486;28;20281;-48
2020/12/09 16:52:34;;;;;;;1999.90;999.90;;;3.30;99.90;;;;;;5037210;28;20264;-48
2020/12/09 16:55:00;;;;;;;1999.90;999.90;;;3.40;99.90;;;;;;5038558;28;20224;-48
2020/12/09 16:57:27;;;;;;;1999.90;999.90;;;3.40;99.90;;;;;;5031860;28;20452;-48
2020/12/09 16:59:56;;;;;;;1999.90;999.90;;;3.40;99.90;;;;;;5032752;28;20499;-49
2020/12/09 17:02:23;;;;;;;1999.90;999.90;;;3.40;99.90;;;;;;5035241;28;20463;-48
2020/12/09 17:04:49;;;;;;;1999.90;999.90;;;3.50;99.90;;;;;;5033968;28;20524;-50
2020/12/09 17:07:15;;;;;;;1999.90;999.90;;;3.40;99.90;;;;;;5034630;28;20436;-48
2020/12/09 17:09:41;;;;;;;1999.90;999.90;;;3.30;99.90;;;;;;5036259;28;20425;-49
2020/12/09 17:12:07;;;;;;;1999.90;999.90;;;3.30;99.90;;;;;;5032144;28;20437;-50
2020/12/09 17:14:32;;;;;;;1999.90;999.90;;;3.30;99.90;;;;;;5037895;28;20229;-50
2020/12/09 17:16:58;;;;;;;1999.90;999.90;;;3.30;99.90;;;;;;5036045;28;20438;-50
2020/12/09 17:19:24;;;;;;;1999.90;999.90;;;3.30;99.90;;;;;;5032492;28;20216;-49
2020/12/09 17:21:51;;;;;;;1999.90;999.90;;;3.30;99.90;;;;;;5032790;28;20266;-48
2020/12/09 17:24:18;;;;;;;1999.90;999.90;;;3.30;99.90;;;;;;5033796;28;20851;-49
2020/12/09 17:26:49;;;;;;;1999.90;999.90;;;3.30;99.90;;;;;;5035367;28;20975;-50
2020/12/09 17:29:15;;;;;;;1999.90;999.90;;;3.30;99.90;;;;;;5031886;28;20428;-48
2020/12/09 17:31:42;;;;;;;1999.90;999.90;;;3.30;99.90;;;;;;5030796;28;20475;-48
2020/12/09 17:34:11;;;;;;;1999.90;999.90;;;3.30;99.90;;;;;;5032827;28;20509;-48
2020/12/09 17:36:38;;;;;;;1999.90;999.90;;;3.20;99.90;;;;;;5033357;28;20426;-49
2020/12/09 17:39:05;;;;;;;1999.90;999.90;;;3.20;99.90;;;;;;5036192;28;20431;-48
2020/12/09 17:41:31;;;;;;;1999.90;999.90;;;3.40;99.90;;;;;;5032622;28;20520;-48
2020/12/09 17:43:56;;;;;;;1999.90;999.90;;;3.40;99.90;;;;;;5030970;28;20527;-49
2020/12/09 17:46:22;;;;;;;1999.90;999.90;;;3.40;99.90;;;;;;5038728;28;20185;-48
2020/12/09 17:48:47;;;;;;;1999.90;999.90;;;3.30;99.90;;;;;;5037725;28;20182;-49
2020/12/09 17:51:14;;;;;;;1999.90;999.90;;;3.30;99.90;;;;;;5031378;28;20194;-49
2020/12/09 17:53:40;;;;;;;1999.90;999.90;;;3.20;99.90;;;;;;5037258;28;20300;-48
2020/12/09 17:56:06;;;;;;;1999.90;999.90;;;3.20;99.90;;;;;;5036489;28;20567;-48
2020/12/09 17:58:31;;;;;;;1999.90;999.90;;;3.20;99.90;;;;;;5035042;28;20188;-48
2020/12/09 18:00:57;;;;;;;1999.90;999.90;;;3.20;99.90;;;;;;5034924;28;20275;-49
2020/12/09 18:03:23;;;;;;;1999.90;999.90;;;3.20;99.90;;;;;;5036028;28;20205;-48
2020/12/09 18:05:48;;;;;;;1999.90;999.90;;;3.20;99.90;;;;;;5036600;28;20235;-49
2020/12/09 18:08:15;;;;;;;1999.90;999.90;;;3.20;99.90;;;;;;5036529;28;20221;-48
2020/12/09 18:10:41;;;;;;;1999.90;999.90;;;3.20;99.90;;;;;;5035761;28;20272;-48
2020/12/09 18:13:07;;;;;;;1999.90;999.90;;;3.20;99.90;;;;;;5036846;28;20513;-48
2020/12/09 18:15:33;;;;;;;1999.90;999.90;;;3.30;99.90;;;;;;5039424;28;20877;-49
2020/12/09 18:17:58;;;;;;;1999.90;999.90;;;3.30;99.90;;;;;;5040790;28;20189;-48
2020/12/09 18:20:24;;;;;;;1999.90;999.90;;;3.30;99.90;;;;;;5048297;28;20212;-49
2020/12/09 18:22:50;;;;;;;1999.90;999.90;;;3.20;99.90;;;;;;5043186;28;20664;-48
2020/12/09 18:25:16;;;;;;;1999.90;999.90;;;3.20;99.90;;;;;;5048670;28;20189;-48
2020/12/09 18:27:42;;;;;;;1999.90;999.90;;;3.20;99.90;;;;;;5031525;28;20459;-51
2020/12/09 18:30:07;;;;;;;1999.90;999.90;;;3.10;99.90;;;;;;5036169;28;20952;-48
2020/12/09 18:32:33;;;;;;;1999.90;999.90;;;3.10;99.90;;;;;;5035065;28;20215;-48
2020/12/09 18:34:59;;;;;;;1999.90;999.90;;;3.10;99.90;;;;;;5051016;28;20255;-49
2020/12/09 18:37:26;;;;;;;1999.90;999.90;;;3.20;99.90;;;;;;5049017;28;20208;-49
2020/12/09 18:39:51;;;;;;;1999.90;999.90;;;3.20;99.90;;;;;;5051136;28;20174;-49
2020/12/09 18:42:18;;;;;;;1999.90;999.90;;;3.10;99.90;;;;;;5046615;28;20466;-48
2020/12/09 18:44:45;;;;;;;1999.90;999.90;;;3.10;99.90;;;;;;5045202;28;20239;-48
2020/12/09 18:47:11;;;;;;;1999.90;999.90;;;3.10;99.90;;;;;;5035566;28;20452;-49
2020/12/09 18:49:37;;;;;;;1999.90;999.90;;;3.10;99.90;;;;;;5030851;28;20444;-49
2020/12/09 18:52:04;;;;;;;1999.90;999.90;;;3.10;99.90;;;;;;5037350;28;20205;-49
2020/12/09 18:54:29;;;;;;;1999.90;999.90;;;3.00;99.90;;;;;;5041975;28;20468;-49
2020/12/09 18:57:00;;;;;;;1999.90;999.90;;;3.10;99.90;;;;;;5039551;28;20466;-49
2020/12/09 18:59:26;;;;;;;1999.90;999.90;;;3.10;99.90;;;;;;5037454;28;20229;-49
2020/12/09 19:01:52;;;;;;;1999.90;999.90;;;3.10;99.90;;;;;;5040029;28;20948;-49
2020/12/09 19:04:17;;;;;;;1999.90;999.90;;;3.10;99.90;;;;;;5039771;28;20487;-49
2020/12/09 19:06:43;;;;;;;1999.90;999.90;;;3.00;99.90;;;;;;5039856;28;20196;-49
2020/12/09 19:09:09;;;;;;;1999.90;999.90;;;3.00;99.90;;;;;;5039302;28;20208;-48
2020/12/09 19:11:35;;;;;;;1999.90;999.90;;;3.00;99.90;;;;;;5036860;28;20192;-48
2020/12/09 19:14:01;;;;;;;1999.90;999.90;;;2.90;99.90;;;;;;5039560;28;20528;-49
2020/12/09 19:16:27;;;;;;;1999.90;999.90;;;2.90;99.90;;;;;;5042529;28;20447;-49
2020/12/09 19:18:53;;;;;;;1999.90;999.90;;;3.00;99.90;;;;;;5039130;28;20184;-49
2020/12/09 19:21:22;;;;;;;1999.90;999.90;;;3.00;99.90;;;;;;5040093;28;20441;-48
2020/12/09 19:23:49;;;;;;;1999.90;999.90;;;3.00;99.90;;;;;;5040794;28;20421;-48
2020/12/09 19:26:23;;;;;;;1999.90;999.90;;;3.00;99.90;;;;;;5043058;28;20444;-49
2020/12/09 19:28:49;;;;;;;1999.90;999.90;;;2.90;99.90;;;;;;5042695;28;20448;-49
2020/12/09 19:31:20;;;;;;;1999.90;999.90;;;2.90;99.90;;;;;;5041891;28;20455;-49
2020/12/09 19:33:46;;;;;;;1999.90;999.90;;;2.80;99.90;;;;;;5048224;28;20428;-49
2020/12/09 19:36:11;;;;;;;1999.90;999.90;;;2.80;99.90;;;;;;5057240;28;20467;-49
2020/12/09 19:38:37;;;;;;;1999.90;999.90;;;2.90;99.90;;;;;;5054577;28;20183;-48
2020/12/09 19:41:02;;;;;;;1999.90;999.90;;;2.90;99.90;;;;;;5052845;28;20193;-50
2020/12/09 19:43:28;;;;;;;1999.90;999.90;;;2.90;99.90;;;;;;5053485;28;20272;-49
2020/12/09 19:45:54;;;;;;;1999.90;999.90;;;3.00;99.90;;;;;;5039015;28;20249;-49
2020/12/09 19:48:19;;;;;;;1999.90;999.90;;;3.00;99.90;;;;;;5042664;28;20216;-49
2020/12/09 19:50:45;;;;;;;1999.90;999.90;;;3.00;99.90;;;;;;5051552;28;20735;-50
2020/12/09 19:53:10;;;;;;;1999.90;999.90;;;3.00;99.90;;;;;;5052049;28;20280;-49
2020/12/09 19:55:36;;;;;;;1999.90;999.90;;;2.90;99.90;;;;;;5046718;28;20208;-49
2020/12/09 19:58:02;;;;;;;1999.90;999.90;;;2.90;99.90;;;;;;5037249;28;20248;-49
2020/12/09 20:00:27;;;;;;;1999.90;999.90;;;2.80;99.90;;;;;;5038096;28;20193;-50
2020/12/09 20:02:53;;;;;;;1999.90;999.90;;;2.90;99.90;;;;;;5051864;28;20217;-49
2020/12/09 20:05:18;;;;;;;1999.90;999.90;;;2.90;99.90;;;;;;5051813;28;20251;-48
2020/12/09 20:07:45;;;;;;;1999.90;999.90;;;2.90;99.90;;;;;;5051254;28;20190;-49
2020/12/09 20:10:11;;;;;;;1999.90;999.90;;;2.90;99.90;;;;;;5048927;28;20197;-48
2020/12/09 20:12:37;;;;;;;1999.90;999.90;;;2.90;99.90;;;;;;5034064;28;20799;-48
2020/12/09 20:15:03;;;;;;;1999.90;999.90;;;3.00;99.90;;;;;;5032926;28;20234;-49
2020/12/09 20:17:29;;;;;;;1999.90;999.90;;;3.00;99.90;;;;;;5036805;28;20568;-49
2020/12/09 20:19:55;;;;;;;1999.90;999.90;;;3.00;99.90;;;;;;5042806;28;20501;-49
2020/12/09 20:22:21;;;;;;;1999.90;999.90;;;3.00;99.90;;;;;;5032420;28;20479;-49
2020/12/09 20:24:47;;;;;;;1999.90;999.90;;;3.00;99.90;;;;;;5035920;28;20182;-49
2020/12/09 20:27:13;;;;;;;1999.90;999.90;;;3.00;99.90;;;;;;5033201;28;20470;-51
2020/12/09 20:29:39;;;;;;;1999.90;999.90;;;3.00;99.90;;;;;;5050433;28;20528;-49
2020/12/09 20:32:04;;;;;;;1999.90;999.90;;;2.90;99.90;;;;;;5052353;28;20514;-49
2020/12/09 20:34:30;;;;;;;1999.90;999.90;;;2.80;99.90;;;;;;5035812;28;20211;-49
2020/12/09 20:36:56;;;;;;;1999.90;999.90;;;2.80;99.90;;;;;;5033156;28;20182;-47
2020/12/09 20:39:22;;;;;;;1999.90;999.90;;;2.80;99.90;;;;;;5033093;28;20201;-48
2020/12/09 20:41:48;;;;;;;1999.90;999.90;;;2.80;99.90;;;;;;5032483;28;20888;-49
2020/12/09 20:44:14;;;;;;;1999.90;999.90;;;2.80;99.90;;;;;;5040461;28;20262;-48
2020/12/09 20:46:41;;;;;;;1999.90;999.90;;;2.90;99.90;;;;;;5033603;28;20907;-48
2020/12/09 20:49:08;;;;;;;1999.90;999.90;;;2.90;99.90;;;;;;5050176;28;20201;-48
2020/12/09 20:51:39;;;;;;;1999.90;999.90;;;2.90;99.90;;;;;;5046499;28;20801;-48
2020/12/09 20:54:06;;;;;;;1999.90;999.90;;;2.90;99.90;;;;;;5050143;28;20435;-48
2020/12/09 20:56:32;;;;;;;1999.90;999.90;;;2.90;99.90;;;;;;5047775;28;20523;-48
2020/12/09 20:58:58;;;;;;;1999.90;999.90;;;2.90;99.90;;;;;;5039903;28;20544;-48
2020/12/09 21:01:24;;;;;;;1999.90;999.90;;;3.00;99.90;;;;;;5047311;28;20510;-48
2020/12/09 21:03:49;;;;;;;1999.90;999.90;;;2.90;99.90;;;;;;5050793;28;20181;-48
2020/12/09 21:06:16;;;;;;;1999.90;999.90;;;2.90;99.90;;;;;;5051803;28;20557;-48
2020/12/09 21:08:41;;;;;;;1999.90;999.90;;;2.90;99.90;;;;;;5051006;28;20316;-47
2020/12/09 21:11:12;;;;;;;1999.90;999.90;;;2.90;99.90;;;;;;5039912;28;20456;-48
2020/12/09 21:13:38;;;;;;;1999.90;999.90;;;2.90;99.90;;;;;;5046688;28;20262;-48
2020/12/09 21:16:05;;;;;;;1999.90;999.90;;;2.90;99.90;;;;;;5050950;28;20471;-48
2020/12/09 21:18:31;;;;;;;1999.90;999.90;;;2.90;99.90;;;;;;5044835;28;20448;-48
2020/12/09 21:20:57;;;;;;;1999.90;999.90;;;2.90;99.90;;;;;;5034258;28;20440;-47
2020/12/09 21:23:23;;;;;;;1999.90;999.90;;;2.90;99.90;;;;;;5049066;28;20204;-48
2020/12/09 21:25:48;;;;;;;1999.90;999.90;;;2.90;99.90;;;;;;5047567;28;20232;-47
2020/12/09 21:28:14;;;;;;;1999.90;999.90;;;2.80;99.90;;;;;;5025932;28;20632;-48
2020/12/09 21:30:39;;;;;;;1999.90;999.90;;;2.90;99.90;;;;;;5040403;28;20240;-48
2020/12/09 21:33:07;;;;;;;1999.90;999.90;;;2.80;99.90;;;;;;5045174;28;20214;-47
2020/12/09 21:35:32;;;;;;;1999.90;999.90;;;2.80;99.90;;;;;;5029751;28;20213;-48
2020/12/09 21:37:58;;;;;;;1999.90;999.90;;;2.80;99.90;;;;;;5036756;28;20502;-48
2020/12/09 21:40:24;;;;;;;1999.90;999.90;;;2.80;99.90;;;;;;5031755;28;20592;-48
2020/12/09 21:42:50;;;;;;;1999.90;999.90;;;2.80;99.90;;;;;;5035978;28;20209;-48
2020/12/09 21:45:17;;;;;;;1999.90;999.90;;;2.90;99.90;;;;;;5037439;28;20197;-48
2020/12/09 21:47:43;;;;;;;1999.90;999.90;;;2.80;99.90;;;;;;5030831;28;21025;-48
2020/12/09 21:50:09;;;;;;;1999.90;999.90;;;2.70;99.90;;;;;;5041184;28;20937;-49
2020/12/09 21:52:38;;;;;;;1999.90;999.90;;;2.80;99.90;;;;;;5035866;28;20514;-48
2020/12/09 21:55:08;;;;;;;1999.90;999.90;;;2.80;99.90;;;;;;5039102;28;20476;-47
2020/12/09 21:57:46;;;;;;;1999.90;999.90;;;2.80;99.90;;;;;;5032712;28;20438;-48
2020/12/09 22:00:13;;;;;;;1999.90;999.90;;;2.80;99.90;;;;;;5029597;28;20539;-48
2020/12/09 22:02:41;;;;;;;1999.90;999.90;;;2.80;99.90;;;;;;5032383;28;20795;-48
2020/12/09 22:05:08;;;;;;;1999.90;999.90;;;2.80;99.90;;;;;;5039763;28;20941;-48
2020/12/09 22:07:38;;;;;;;1999.90;999.90;;;2.80;99.90;;;;;;5044657;28;20464;-48
2020/12/09 22:10:04;;;;;;;1999.90;999.90;;;2.80;99.90;;;;;;5040335;28;20997;-47
2020/12/09 22:12:30;;;;;;;1999.90;999.90;;;2.80;99.90;;;;;;5045252;28;20456;-48
2020/12/09 22:14:56;;;;;;;1999.90;999.90;;;2.90;99.90;;;;;;5029452;28;20472;-47
2020/12/09 22:17:21;;;;;;;1999.90;999.90;;;2.90;99.90;;;;;;5032238;28;20232;-48
2020/12/09 22:19:47;;;;;;;1999.90;999.90;;;2.90;99.90;;;;;;5030652;28;20247;-48
